createdAt,value
2019-03-10T00:04:58.135Z,67.11
2019-03-10T00:07:26.417Z,67.33
2019-03-10T00:09:54.609Z,67.71
2019-03-10T00:12:23.398Z,67.96
2019-03-10T00:14:51.865Z,67.41
2019-03-10T00:17:20.158Z,67.71
2019-03-10T00:19:48.084Z,68.28
2019-03-10T00:22:16.716Z,68.44
2019-03-10T00:24:45.490Z,68.89
2019-03-10T00:27:13.693Z,69.40
2019-03-10T00:29:42.270Z,69.89
2019-03-10T00:32:10.154Z,70.44
2019-03-10T00:34:38.054Z,70.72
2019-03-10T00:37:06.205Z,70.99
2019-03-10T00:43:17.199Z,71.83
2019-03-10T00:46:23.890Z,72.17
2019-03-10T00:49:30.696Z,72.13
2019-03-10T00:52:20.301Z,71.88
2019-03-10T00:54:48.169Z,72.07
2019-03-10T00:57:16.878Z,72.17
2019-03-10T00:59:45.723Z,72.34
2019-03-10T01:02:14.055Z,72.42
2019-03-10T01:04:42.688Z,72.34
2019-03-10T01:07:10.975Z,72.37
2019-03-10T01:09:38.838Z,72.66
2019-03-10T01:12:07.182Z,73.07
2019-03-10T01:14:35.091Z,73.45
2019-03-10T01:17:03.094Z,73.58
2019-03-10T01:20:11.679Z,73.53
2019-03-10T01:22:58.982Z,73.88
2019-03-10T01:25:26.874Z,74.48
2019-03-10T01:27:54.723Z,74.62
2019-03-10T01:30:23.338Z,74.70
2019-03-10T01:33:30.005Z,74.71
2019-03-10T01:35:58.583Z,74.75
2019-03-10T01:38:26.962Z,75.14
2019-03-10T01:40:55.678Z,75.36
2019-03-10T01:43:23.960Z,75.08
2019-03-10T01:45:52.203Z,75.33
2019-03-10T01:48:20.494Z,75.74
2019-03-10T01:50:49.180Z,75.76
2019-03-10T01:53:25.285Z,75.67
2019-03-10T01:55:56.708Z,75.92
2019-03-10T01:58:43.920Z,76.13
2019-03-10T02:01:11.807Z,76.06
2019-03-10T02:03:40.264Z,75.97
2019-03-10T02:06:08.880Z,75.66
2019-03-10T02:08:37.749Z,75.26
2019-03-10T02:11:06.041Z,75.30
2019-03-10T02:13:34.030Z,74.89
2019-03-10T02:16:01.810Z,73.93
2019-03-10T02:18:30.385Z,74.44
2019-03-10T02:20:58.428Z,74.84
2019-03-10T02:23:26.684Z,74.98
2019-03-10T02:25:55.012Z,74.80
2019-03-10T02:28:23.294Z,74.62
2019-03-10T02:30:51.173Z,75.07
2019-03-10T02:33:19.485Z,75.23
2019-03-10T02:35:48.144Z,75.34
2019-03-10T02:38:16.465Z,74.86
2019-03-10T02:40:45.020Z,74.19
2019-03-10T02:43:12.901Z,73.11
2019-03-10T02:45:41.157Z,73.46
2019-03-10T02:48:09.168Z,73.52
2019-03-10T02:50:37.413Z,71.78
2019-03-10T02:53:06.020Z,67.53
2019-03-10T02:55:34.603Z,66.58
2019-03-10T02:58:03.289Z,64.64
2019-03-10T03:00:31.686Z,66.97
2019-03-10T03:02:59.703Z,68.63
2019-03-10T03:05:28.130Z,69.67
2019-03-10T03:07:56.723Z,70.83
2019-03-10T03:10:25.424Z,71.85
2019-03-10T03:12:53.356Z,72.69
2019-03-10T03:15:21.628Z,74.46
2019-03-10T03:17:50.315Z,75.80
2019-03-10T03:20:18.281Z,76.44
2019-03-10T03:22:46.709Z,77.51
2019-03-10T03:25:15.432Z,78.36
2019-03-10T03:27:43.700Z,79.65
2019-03-10T03:33:33.075Z,80.32
2019-03-10T03:36:07.905Z,80.45
2019-03-10T03:39:14.578Z,81.26
2019-03-10T03:41:42.392Z,81.43
2019-03-10T03:44:10.665Z,80.65
2019-03-10T03:46:39.042Z,80.87
2019-03-10T03:49:07.015Z,81.17
2019-03-10T03:51:35.254Z,81.29
2019-03-10T03:54:03.217Z,80.38
2019-03-10T03:56:30.822Z,80.62
2019-03-10T03:58:59.509Z,80.62
2019-03-10T04:04:29.902Z,81.94
2019-03-10T04:06:57.842Z,82.52
2019-03-10T04:09:26.591Z,83.36
2019-03-10T04:11:54.862Z,83.40
2019-03-10T04:14:22.845Z,83.29
2019-03-10T04:16:51.198Z,83.57
2019-03-10T04:19:19.533Z,83.81
2019-03-10T04:21:47.741Z,84.13
2019-03-10T04:24:16.074Z,84.71
2019-03-10T04:26:44.259Z,85.28
2019-03-10T04:29:12.930Z,85.44
2019-03-10T04:31:41.110Z,85.76
2019-03-10T04:34:09.798Z,85.41
2019-03-10T04:36:38.023Z,86.19
2019-03-10T04:39:07.093Z,86.45
2019-03-10T04:41:35.595Z,87.08
2019-03-10T04:44:04.163Z,87.09
2019-03-10T04:46:32.755Z,87.66
2019-03-10T04:49:01.342Z,87.29
2019-03-10T04:51:29.232Z,87.82
2019-03-10T04:53:57.390Z,88.02
2019-03-10T04:56:44.844Z,88.24
2019-03-10T04:59:25.456Z,88.18
2019-03-10T05:01:54.174Z,88.90
2019-03-10T05:04:22.495Z,88.87
2019-03-10T05:06:50.745Z,89.35
2019-03-10T05:09:19.328Z,89.91
2019-03-10T05:11:47.605Z,90.28
2019-03-10T05:14:16.244Z,90.94
2019-03-10T05:16:44.486Z,90.91
2019-03-10T05:19:13.065Z,91.39
2019-03-10T05:21:41.355Z,91.62
2019-03-10T05:24:12.184Z,92.15
2019-03-10T05:26:40.182Z,92.10
2019-03-10T05:29:08.553Z,92.18
2019-03-10T05:31:37.145Z,92.30
2019-03-10T05:34:05.303Z,92.68
2019-03-10T05:36:33.284Z,92.95
2019-03-10T05:39:01.995Z,93.14
2019-03-10T05:41:30.263Z,93.25
2019-03-10T05:44:38.863Z,93.31
2019-03-10T05:47:18.143Z,93.21
2019-03-10T05:49:46.789Z,93.40
2019-03-10T05:52:54.999Z,93.52
2019-03-10T05:58:03.438Z,93.58
2019-03-10T06:00:42.026Z,93.44
2019-03-10T06:03:08.886Z,93.30
2019-03-10T06:05:37.595Z,93.45
2019-03-10T06:08:05.612Z,93.75
2019-03-10T06:10:33.110Z,93.83
2019-03-10T06:13:01.026Z,93.49
2019-03-10T06:15:29.271Z,93.17
2019-03-10T06:17:57.146Z,93.26
2019-03-10T06:20:25.743Z,93.37
2019-03-10T06:22:54.143Z,93.36
2019-03-10T06:25:22.395Z,93.35
2019-03-10T06:27:50.445Z,93.26
2019-03-10T06:30:19.185Z,93.38
2019-03-10T06:32:47.759Z,93.40
2019-03-10T06:35:15.935Z,93.39
2019-03-10T06:37:43.975Z,93.60
2019-03-10T06:40:12.706Z,93.46
2019-03-10T06:42:41.085Z,93.72
2019-03-10T06:45:09.366Z,93.56
2019-03-10T06:47:38.057Z,93.45
2019-03-10T06:50:06.554Z,93.61
2019-03-10T06:52:35.046Z,93.80
2019-03-10T06:55:03.323Z,93.66
2019-03-10T06:57:31.534Z,93.48
2019-03-10T07:02:59.675Z,93.00
2019-03-10T07:05:40.090Z,91.96
2019-03-10T07:11:10.066Z,90.86
2019-03-10T07:13:39.629Z,89.67
2019-03-10T07:16:07.634Z,89.46
2019-03-10T07:18:35.632Z,90.14
2019-03-10T07:21:03.911Z,89.14
2019-03-10T07:23:32.531Z,89.12
2019-03-10T07:26:20.225Z,88.70
2019-03-10T07:29:07.771Z,88.67
2019-03-10T07:31:41.777Z,88.68
2019-03-10T07:34:29.583Z,88.09
2019-03-10T07:37:17.439Z,87.95
2019-03-10T07:39:51.186Z,88.42
2019-03-10T07:45:34.244Z,88.64
2019-03-10T07:48:21.782Z,89.06
2019-03-10T07:50:56.317Z,88.37
2019-03-10T07:53:43.712Z,87.36
2019-03-10T07:56:23.565Z,87.61
2019-03-10T08:02:12.489Z,88.38
2019-03-10T08:04:59.871Z,88.58
2019-03-10T08:07:47.670Z,89.12
2019-03-10T08:10:47.134Z,89.80
2019-03-10T08:13:34.870Z,89.27
2019-03-10T08:19:23.613Z,89.92
2019-03-10T08:22:11.384Z,89.74
2019-03-10T08:24:58.789Z,89.67
2019-03-10T08:27:46.486Z,89.93
2019-03-10T08:30:34.241Z,89.97
2019-03-10T08:33:21.594Z,90.01
2019-03-10T08:39:29.756Z,89.20
2019-03-10T08:42:20.615Z,89.05
2019-03-10T08:45:14.125Z,89.63
2019-03-10T08:48:01.655Z,89.53
2019-03-10T08:50:33.234Z,90.08
2019-03-10T08:53:41.896Z,90.03
2019-03-10T08:56:17.224Z,89.13
2019-03-10T08:59:04.951Z,89.31
2019-03-10T09:02:11.713Z,88.70
2019-03-10T09:04:45.525Z,89.04
2019-03-10T09:07:33.314Z,88.89
2019-03-10T09:10:33.023Z,89.23
2019-03-10T09:13:20.451Z,89.96
2019-03-10T09:19:09.342Z,89.81
2019-03-10T09:21:57.147Z,90.53
2019-03-10T09:24:56.334Z,90.31
2019-03-10T09:27:43.739Z,88.91
2019-03-10T09:33:51.837Z,89.95
2019-03-10T09:36:39.259Z,88.92
2019-03-10T09:39:48.287Z,89.54
2019-03-10T09:42:35.673Z,89.72
2019-03-10T09:45:23.088Z,89.66
2019-03-10T09:48:10.907Z,89.55
2019-03-10T09:51:19.580Z,89.44
2019-03-10T09:54:07.481Z,89.17
2019-03-10T09:57:16.121Z,89.18
2019-03-10T10:03:24.729Z,89.48
2019-03-10T10:06:24.207Z,89.20
2019-03-10T10:09:23.032Z,89.05
2019-03-10T10:12:13.607Z,88.23
2019-03-10T10:18:26.995Z,88.09
2019-03-10T10:21:14.916Z,89.10
2019-03-10T10:24:02.479Z,88.69
2019-03-10T10:26:49.924Z,88.23
2019-03-10T10:29:37.749Z,88.59
2019-03-10T10:35:26.346Z,88.50
2019-03-10T10:38:18.564Z,88.45
2019-03-10T10:41:09.871Z,88.52
2019-03-10T10:43:57.559Z,88.16
2019-03-10T10:46:37.386Z,88.17
2019-03-10T10:49:31.050Z,87.47
2019-03-10T10:54:50.474Z,88.06
2019-03-10T10:57:30.287Z,88.56
2019-03-10T11:00:37.096Z,87.20
2019-03-10T11:03:24.556Z,87.52
2019-03-10T11:06:12.306Z,87.54
2019-03-10T11:09:02.682Z,86.28
2019-03-10T11:11:55.976Z,86.84
2019-03-10T11:15:04.340Z,86.45
2019-03-10T11:17:52.200Z,84.70
2019-03-10T11:20:41.282Z,84.46
2019-03-10T11:23:28.005Z,83.69
2019-03-10T11:26:15.371Z,82.11
2019-03-10T11:29:04.059Z,81.83
2019-03-10T11:31:51.664Z,81.51
2019-03-10T11:37:48.088Z,80.82
2019-03-10T11:40:47.389Z,79.34
2019-03-10T11:43:35.284Z,80.67
2019-03-10T11:46:42.100Z,78.28
2019-03-10T11:49:29.872Z,77.14
2019-03-10T11:52:16.964Z,74.74
2019-03-10T11:55:00.422Z,75.63
2019-03-10T11:57:42.197Z,75.32
2019-03-10T12:00:18.872Z,75.98
2019-03-10T12:02:55.916Z,75.22
2019-03-10T12:05:39.710Z,74.94
2019-03-10T12:08:26.801Z,74.71
2019-03-10T12:11:06.486Z,71.60
2019-03-10T12:13:34.720Z,70.81
2019-03-10T12:18:44.171Z,71.05
2019-03-10T12:21:12.806Z,69.92
2019-03-10T12:23:41.040Z,69.63
2019-03-10T12:26:09.417Z,70.75
2019-03-10T12:28:37.865Z,71.34
2019-03-10T12:31:05.453Z,69.89
2019-03-10T12:33:33.410Z,69.56
2019-03-10T12:36:08.578Z,70.16
2019-03-10T12:38:36.562Z,71.16
2019-03-10T12:41:25.436Z,69.70
2019-03-10T12:43:53.982Z,66.78
2019-03-10T12:46:23.352Z,64.93
2019-03-10T12:48:51.879Z,64.97
2019-03-10T12:51:22.295Z,66.12
2019-03-10T12:54:02.548Z,65.58
2019-03-10T12:56:50.136Z,67.00
2019-03-10T12:59:18.416Z,65.98
2019-03-10T13:01:46.596Z,66.57
2019-03-10T13:04:14.602Z,66.52
2019-03-10T13:06:42.969Z,68.03
2019-03-10T13:12:12.859Z,69.30
2019-03-10T13:14:41.071Z,69.20
2019-03-10T13:17:09.316Z,70.30
2019-03-10T13:19:37.608Z,73.53
2019-03-10T13:22:06.313Z,74.65
2019-03-10T13:24:35.100Z,77.41
2019-03-10T13:27:04.103Z,79.09
2019-03-10T13:29:32.086Z,79.77
2019-03-10T13:32:00.463Z,80.72
2019-03-10T13:34:29.089Z,83.25
2019-03-10T13:36:57.895Z,85.03
2019-03-10T13:39:26.310Z,85.29
2019-03-10T13:41:55.062Z,85.58
2019-03-10T13:44:24.787Z,85.19
2019-03-10T13:47:03.769Z,84.50
2019-03-10T13:49:31.705Z,85.87
2019-03-10T13:52:00.422Z,84.12
2019-03-10T13:54:28.705Z,85.33
2019-03-10T13:56:58.272Z,84.64
2019-03-10T13:59:27.300Z,83.97
2019-03-10T14:01:54.926Z,82.23
2019-03-10T14:04:23.693Z,79.25
2019-03-10T14:06:51.938Z,77.76
2019-03-10T14:09:20.613Z,78.55
2019-03-10T14:11:49.354Z,77.00
2019-03-10T14:14:17.648Z,76.41
2019-03-10T14:19:48.054Z,67.41
2019-03-10T14:22:16.311Z,63.53
2019-03-10T14:24:44.314Z,63.16
2019-03-10T14:27:12.868Z,62.20
2019-03-10T14:29:41.257Z,62.07
2019-03-10T14:32:21.076Z,61.51
2019-03-10T14:34:49.433Z,64.71
2019-03-10T14:37:17.888Z,67.13
2019-03-10T14:39:46.217Z,67.96
2019-03-10T14:42:14.841Z,69.25
2019-03-10T14:44:43.205Z,68.58
2019-03-10T14:47:11.953Z,64.59
2019-03-10T14:49:40.431Z,62.25
2019-03-10T14:52:08.811Z,66.15
2019-03-10T14:54:37.688Z,65.40
2019-03-10T14:57:07.456Z,59.43
2019-03-10T14:59:36.229Z,57.26
2019-03-10T15:02:04.529Z,55.38
2019-03-10T15:04:33.262Z,55.08
2019-03-10T15:07:03.213Z,54.32
2019-03-10T15:09:41.538Z,52.39
2019-03-10T15:12:10.222Z,53.40
2019-03-10T15:14:39.421Z,53.97
2019-03-10T15:17:07.701Z,51.62
2019-03-10T15:19:36.462Z,52.67
2019-03-10T15:22:05.138Z,56.43
2019-03-10T15:24:33.497Z,58.47
2019-03-10T15:27:02.200Z,61.49
2019-03-10T15:29:31.585Z,61.55
2019-03-10T15:32:00.374Z,62.71
2019-03-10T15:34:29.687Z,62.92
2019-03-10T15:36:58.282Z,61.07
2019-03-10T15:39:27.465Z,54.36
2019-03-10T15:41:56.183Z,49.78
2019-03-10T15:44:25.333Z,50.31
2019-03-10T15:46:54.144Z,49.27
2019-03-10T15:49:22.546Z,50.24
2019-03-10T15:51:49.761Z,48.59
2019-03-10T15:54:18.212Z,47.32
2019-03-10T15:56:47.080Z,45.98
2019-03-10T15:59:14.952Z,43.14
2019-03-10T16:01:43.217Z,43.99
2019-03-10T16:04:30.942Z,46.90
2019-03-10T16:06:59.651Z,52.49
2019-03-10T16:09:30.007Z,54.65
2019-03-10T16:11:59.258Z,56.81
2019-03-10T16:14:28.207Z,56.07
2019-03-10T16:16:56.987Z,56.01
2019-03-10T16:22:06.150Z,55.52
2019-03-10T16:24:34.190Z,56.29
2019-03-10T16:27:01.904Z,56.98
2019-03-10T16:29:30.244Z,57.42
2019-03-10T16:31:59.157Z,56.57
2019-03-10T16:34:27.393Z,57.37
2019-03-10T16:36:56.217Z,58.84
2019-03-10T16:39:24.507Z,59.70
2019-03-10T16:41:52.411Z,59.86
2019-03-10T16:44:21.164Z,60.42
2019-03-10T16:46:49.255Z,60.91
2019-03-10T16:49:17.731Z,61.18
2019-03-10T16:51:46.121Z,61.33
2019-03-10T16:54:14.712Z,60.82
2019-03-10T16:56:42.662Z,60.04
2019-03-10T16:59:10.819Z,58.96
2019-03-10T17:01:38.752Z,58.11
2019-03-10T17:04:07.146Z,57.88
2019-03-10T17:06:35.426Z,58.05
2019-03-10T17:09:35.382Z,58.04
2019-03-10T17:12:03.687Z,57.48
2019-03-10T17:14:33.767Z,57.67
2019-03-10T17:17:02.392Z,58.33
2019-03-10T17:20:10.995Z,59.14
2019-03-10T17:22:38.802Z,58.35
2019-03-10T17:25:07.084Z,57.95
2019-03-10T17:27:35.169Z,57.04
2019-03-10T17:30:04.263Z,58.54
2019-03-10T17:32:32.602Z,57.27
2019-03-10T17:35:01.291Z,58.31
2019-03-10T17:37:29.789Z,58.02
2019-03-10T17:39:58.063Z,58.50
2019-03-10T17:42:26.404Z,59.23
2019-03-10T17:44:54.748Z,60.08
2019-03-10T17:47:26.739Z,59.93
2019-03-10T17:49:59.178Z,60.67
2019-03-10T17:52:28.067Z,61.79
2019-03-10T17:54:56.678Z,61.88
2019-03-10T17:57:25.416Z,62.97
2019-03-10T17:59:54.174Z,63.38
2019-03-10T18:02:22.538Z,63.87
2019-03-10T18:04:50.960Z,64.90
2019-03-10T18:07:18.809Z,65.09
2019-03-10T18:09:47.236Z,64.35
2019-03-10T18:12:16.720Z,64.44
2019-03-10T18:14:44.851Z,59.92
2019-03-10T18:17:13.560Z,59.96
2019-03-10T18:19:41.856Z,59.25
2019-03-10T18:22:10.947Z,59.22
2019-03-10T18:24:39.848Z,59.39
2019-03-10T18:27:08.532Z,59.35
2019-03-10T18:29:37.116Z,58.96
2019-03-10T18:32:05.914Z,58.91
2019-03-10T18:34:33.999Z,59.46
2019-03-10T18:37:03.032Z,60.13
2019-03-10T18:39:31.596Z,59.59
2019-03-10T18:42:00.448Z,59.38
2019-03-10T18:47:49.641Z,59.09
2019-03-10T18:50:31.772Z,59.54
2019-03-10T18:53:00.658Z,60.28
2019-03-10T18:58:30.013Z,60.04
2019-03-10T19:00:58.432Z,60.31
2019-03-10T19:03:27.097Z,59.68
2019-03-10T19:05:57.926Z,60.29
2019-03-10T19:08:26.376Z,62.35
2019-03-10T19:11:14.515Z,70.58
2019-03-10T19:13:43.285Z,69.98
2019-03-10T19:16:11.368Z,69.46
2019-03-10T19:18:40.099Z,70.74
2019-03-10T19:21:08.159Z,70.50
2019-03-10T19:23:36.317Z,69.86
2019-03-10T19:26:04.682Z,71.37
2019-03-10T19:31:54.272Z,77.96
2019-03-10T19:34:23.167Z,79.50
2019-03-10T19:36:57.375Z,79.86
2019-03-10T19:39:50.961Z,79.06
2019-03-10T19:42:20.274Z,78.97
2019-03-10T19:44:49.183Z,79.70
2019-03-10T19:47:36.349Z,78.31
2019-03-10T19:50:16.330Z,77.85
2019-03-10T19:52:56.645Z,78.44
2019-03-10T19:55:25.039Z,76.73
2019-03-10T19:57:53.431Z,77.25
2019-03-10T20:00:21.296Z,76.87
2019-03-10T20:02:49.178Z,77.09
2019-03-10T20:05:17.549Z,78.34
2019-03-10T20:07:46.394Z,78.73
2019-03-10T20:10:14.783Z,78.50
2019-03-10T20:12:43.472Z,79.51
2019-03-10T20:15:14.400Z,79.77
2019-03-10T20:18:23.247Z,78.94
2019-03-10T20:21:10.809Z,77.78
2019-03-10T20:23:39.497Z,77.18
2019-03-10T20:26:07.968Z,77.37
2019-03-10T20:28:36.260Z,76.71
2019-03-10T20:31:05.071Z,75.73
2019-03-10T20:33:33.451Z,76.33
2019-03-10T20:36:12.666Z,76.40
2019-03-10T20:38:41.461Z,73.35
2019-03-10T20:41:10.301Z,74.00
2019-03-10T20:43:38.734Z,74.73
2019-03-10T20:46:08.864Z,73.48
2019-03-10T20:48:37.731Z,72.43
2019-03-10T20:51:06.444Z,73.43
2019-03-10T20:53:34.886Z,73.07
2019-03-10T20:56:03.714Z,73.56
2019-03-10T21:01:34.172Z,72.68
2019-03-10T21:04:02.580Z,72.63
2019-03-10T21:06:31.842Z,71.96
2019-03-10T21:09:40.209Z,77.78
2019-03-10T21:12:08.939Z,81.44
2019-03-10T21:14:37.846Z,80.20
2019-03-10T21:17:08.922Z,79.19
2019-03-10T21:19:37.598Z,77.87
2019-03-10T21:22:07.219Z,78.67
2019-03-10T21:24:35.214Z,78.15
2019-03-10T21:27:05.005Z,77.61
2019-03-10T21:29:33.469Z,81.07
2019-03-10T21:32:02.220Z,83.24
2019-03-10T21:34:49.812Z,84.53
2019-03-10T21:37:49.159Z,86.01
2019-03-10T21:40:36.931Z,87.12
2019-03-10T21:43:06.101Z,87.20
2019-03-10T21:45:34.691Z,86.89
2019-03-10T21:48:03.288Z,85.88
2019-03-10T21:50:31.170Z,84.92
2019-03-10T21:52:59.943Z,84.00
2019-03-10T21:55:28.384Z,83.98
2019-03-10T21:57:56.976Z,83.52
2019-03-10T22:00:25.812Z,83.08
2019-03-10T22:02:54.183Z,81.96
2019-03-10T22:05:22.772Z,79.80
2019-03-10T22:07:51.547Z,79.97
2019-03-10T22:13:16.466Z,78.79
2019-03-10T22:15:44.448Z,79.70
2019-03-10T22:18:20.613Z,78.90
2019-03-10T22:20:48.691Z,79.05
2019-03-10T22:23:35.698Z,78.63
2019-03-10T22:26:04.405Z,79.01
2019-03-10T22:28:32.607Z,79.65
2019-03-10T22:34:22.340Z,78.93
2019-03-10T22:36:51.463Z,76.98
2019-03-10T22:39:20.333Z,76.64
2019-03-10T22:42:09.968Z,73.85
2019-03-10T22:44:38.998Z,74.48
2019-03-10T22:50:35.147Z,71.89
2019-03-10T22:53:03.545Z,70.75
2019-03-10T22:55:31.818Z,68.99
2019-03-10T22:58:00.521Z,68.00
2019-03-10T23:00:47.271Z,67.39
2019-03-10T23:03:15.626Z,66.47
2019-03-10T23:05:43.783Z,65.15
2019-03-10T23:08:52.491Z,64.32
2019-03-10T23:11:21.314Z,63.88
2019-03-10T23:13:50.159Z,64.37
2019-03-10T23:16:18.643Z,63.63
2019-03-10T23:18:47.054Z,63.83
2019-03-10T23:21:15.412Z,64.82
2019-03-10T23:23:43.333Z,63.68
2019-03-10T23:26:11.678Z,63.33
2019-03-10T23:28:39.578Z,64.37
2019-03-10T23:31:08.086Z,62.40
2019-03-10T23:33:36.758Z,62.76
2019-03-10T23:36:04.713Z,62.54
2019-03-10T23:38:32.925Z,62.60
2019-03-10T23:41:02.132Z,62.72
2019-03-10T23:43:31.278Z,63.59
2019-03-10T23:45:59.572Z,64.16
2019-03-10T23:48:47.198Z,64.21
2019-03-10T23:51:34.541Z,64.99
2019-03-10T23:54:03.125Z,65.00
2019-03-10T23:56:31.486Z,63.71
2019-03-10T23:59:19.230Z,64.46
